Time;durP1;ratioP1;P1;durP2;ratioP2;P2;SDS_P1;SDS_P2;PMS_P1;PMS_P2;Temp;Humidity;BMP_temperature;BMP_pressure;BME280_temperature;BME280_humidity;BME280_pressure;Samples;Min_cycle;Max_cycle;Signal;HPM_P1;HPM_P2
2021/08/19 00:01:04;;;;;;;3.93;1.77;;;;;;;;;;4918244;29;20078;-84
2021/08/19 00:03:30;;;;;;;3.93;1.60;;;;;;;;;;4918479;29;20066;-84
2021/08/19 00:05:55;;;;;;;3.00;1.60;;;;;;;;;;4918531;29;20019;-84
2021/08/19 00:08:20;;;;;;;3.20;1.60;;;;;;;;;;4918231;29;20114;-84
2021/08/19 00:10:46;;;;;;;3.00;1.40;;;;;;;;;;4933999;29;20139;-84
2021/08/19 00:13:11;;;;;;;2.50;1.47;;;;;;;;;;4918086;29;20438;-85
2021/08/19 00:15:37;;;;;;;3.97;1.60;;;;;;;;;;4902252;29;20030;-84
2021/08/19 00:18:02;;;;;;;2.73;1.43;;;;;;;;;;4902455;29;20032;-85
2021/08/19 00:20:29;;;;;;;4.30;1.80;;;;;;;;;;4902688;29;20032;-84
2021/08/19 00:22:55;;;;;;;2.30;1.45;;;;;;;;;;4902639;29;20032;-84
2021/08/19 00:25:20;;;;;;;3.77;1.60;;;;;;;;;;4886725;29;20122;-85
2021/08/19 00:27:46;;;;;;;2.67;1.30;;;;;;;;;;4901844;29;20099;-85
2021/08/19 00:30:11;;;;;;;3.13;1.63;;;;;;;;;;4886683;29;20020;-84
2021/08/19 00:32:36;;;;;;;3.80;1.70;;;;;;;;;;4886501;29;20023;-84
2021/08/19 00:35:02;;;;;;;3.37;1.60;;;;;;;;;;4902083;29;20020;-84
2021/08/19 00:37:28;;;;;;;3.10;1.80;;;;;;;;;;4902126;29;20028;-84
2021/08/19 00:39:53;;;;;;;7.33;1.77;;;;;;;;;;4886432;29;20026;-84
2021/08/19 00:42:18;;;;;;;4.40;1.40;;;;;;;;;;4901844;29;20038;-84
2021/08/19 00:44:47;;;;;;;2.60;1.40;;;;;;;;;;4886288;29;20435;-85
2021/08/19 00:47:12;;;;;;;4.93;1.63;;;;;;;;;;4886107;29;20030;-84
2021/08/19 00:49:38;;;;;;;2.80;1.67;;;;;;;;;;4886384;29;20111;-84
2021/08/19 00:52:03;;;;;;;3.67;1.90;;;;;;;;;;4901692;29;20087;-84
2021/08/19 00:54:29;;;;;;;3.77;1.80;;;;;;;;;;4901744;29;20430;-84
2021/08/19 00:56:55;;;;;;;3.40;1.60;;;;;;;;;;4902042;29;20489;-84
2021/08/19 00:59:23;;;;;;;3.33;1.73;;;;;;;;;;4902069;29;20154;-85
2021/08/19 01:01:48;;;;;;;2.72;1.70;;;;;;;;;;4902144;29;20055;-84
2021/08/19 01:04:14;;;;;;;3.37;1.40;;;;;;;;;;4917363;29;20020;-84
2021/08/19 01:06:39;;;;;;;3.17;1.33;;;;;;;;;;4917799;29;20030;-84
2021/08/19 01:09:05;;;;;;;2.47;1.40;;;;;;;;;;4917492;29;20608;-85
2021/08/19 01:11:31;;;;;;;2.73;1.53;;;;;;;;;;4917298;29;20074;-84
2021/08/19 01:13:56;;;;;;;3.47;1.70;;;;;;;;;;4920044;29;20055;-84
2021/08/19 01:16:22;;;;;;;3.40;1.70;;;;;;;;;;4917381;29;20130;-84
2021/08/19 01:18:48;;;;;;;5.20;2.10;;;;;;;;;;4917457;29;20028;-84
2021/08/19 01:21:14;;;;;;;3.60;1.60;;;;;;;;;;4932863;29;20446;-84
2021/08/19 01:23:50;;;;;;;3.38;1.50;;;;;;;;;;4933460;29;20024;-84
2021/08/19 01:26:19;;;;;;;5.30;1.58;;;;;;;;;;4933104;29;20028;-84
2021/08/19 01:28:45;;;;;;;3.65;1.70;;;;;;;;;;4933122;29;20032;-84
2021/08/19 01:31:19;;;;;;;4.93;1.70;;;;;;;;;;4932856;29;20064;-84
2021/08/19 01:33:46;;;;;;;5.07;1.77;;;;;;;;;;4933070;29;20066;-84
2021/08/19 01:36:11;;;;;;;;;;;;;;;;;;4933305;29;20039;-84
2021/08/19 01:38:37;;;;;;;2.90;1.38;;;;;;;;;;4949442;28;19911;-84
2021/08/19 01:41:02;;;;;;;6.17;1.63;;;;;;;;;;4936717;29;20024;-84
2021/08/19 01:43:28;;;;;;;5.57;1.63;;;;;;;;;;4936442;29;20024;-85
2021/08/19 01:46:10;;;;;;;3.70;1.50;;;;;;;;;;4921069;29;20023;-84
2021/08/19 01:48:35;;;;;;;3.35;1.40;;;;;;;;;;4921174;29;20027;-85
2021/08/19 01:51:02;;;;;;;2.73;1.50;;;;;;;;;;4920636;29;20030;-84
2021/08/19 01:53:27;;;;;;;2.33;1.38;;;;;;;;;;4936349;29;20024;-84
2021/08/19 01:55:54;;;;;;;2.70;1.53;;;;;;;;;;4920520;29;20083;-85
2021/08/19 01:58:19;;;;;;;;;;;;;;;;;;4921349;29;20031;-84
2021/08/19 02:00:45;;;;;;;2.67;1.48;;;;;;;;;;4920442;29;19917;-84
2021/08/19 02:03:10;;;;;;;3.20;1.60;;;;;;;;;;4920267;29;20028;-84
2021/08/19 02:05:36;;;;;;;2.10;1.20;;;;;;;;;;4920666;29;20111;-84
2021/08/19 02:08:02;;;;;;;3.05;1.50;;;;;;;;;;4920882;29;20541;-84
2021/08/19 02:10:27;;;;;;;2.97;1.20;;;;;;;;;;4920320;29;20035;-84
2021/08/19 02:12:52;;;;;;;4.67;1.40;;;;;;;;;;4920181;29;20179;-84
2021/08/19 02:15:18;;;;;;;3.63;1.30;;;;;;;;;;4920553;29;20085;-84
2021/08/19 02:17:43;;;;;;;4.67;1.37;;;;;;;;;;4920378;29;20124;-84
2021/08/19 02:20:09;;;;;;;3.33;1.30;;;;;;;;;;4920441;29;20031;-84
2021/08/19 02:22:34;;;;;;;3.40;1.40;;;;;;;;;;4920461;29;20604;-84
2021/08/19 02:25:00;;;;;;;2.53;1.40;;;;;;;;;;4920083;29;20095;-84
2021/08/19 02:27:26;;;;;;;3.13;1.30;;;;;;;;;;4920106;29;20032;-84
2021/08/19 02:29:51;;;;;;;3.25;1.40;;;;;;;;;;4920542;29;20032;-84
2021/08/19 02:32:17;;;;;;;2.27;1.30;;;;;;;;;;4919981;29;20034;-84
2021/08/19 02:34:43;;;;;;;2.55;1.50;;;;;;;;;;4920373;29;20020;-84
2021/08/19 02:37:08;;;;;;;3.50;1.43;;;;;;;;;;4919996;29;20039;-84
2021/08/19 02:39:34;;;;;;;2.70;1.40;;;;;;;;;;4920200;29;20047;-84
2021/08/19 02:41:59;;;;;;;3.23;1.50;;;;;;;;;;4919494;29;20453;-84
2021/08/19 02:44:24;;;;;;;2.77;1.50;;;;;;;;;;4919838;29;20112;-84
2021/08/19 02:46:50;;;;;;;3.23;1.30;;;;;;;;;;4920327;29;20023;-85
2021/08/19 02:49:15;;;;;;;2.23;1.30;;;;;;;;;;4919531;29;20179;-84
2021/08/19 02:51:40;;;;;;;3.50;1.47;;;;;;;;;;4919854;29;20027;-84
2021/08/19 02:54:06;;;;;;;2.73;1.40;;;;;;;;;;4919638;29;20028;-85
2021/08/19 02:56:31;;;;;;;4.43;1.30;;;;;;;;;;4916773;29;20024;-85
2021/08/19 02:58:56;;;;;;;2.03;1.30;;;;;;;;;;4932488;29;20063;-84
2021/08/19 03:01:22;;;;;;;2.80;1.10;;;;;;;;;;4931756;29;20558;-84
2021/08/19 03:03:47;;;;;;;2.47;1.40;;;;;;;;;;4932148;29;20035;-84
2021/08/19 03:06:12;;;;;;;2.90;1.50;;;;;;;;;;4932383;29;20028;-84
2021/08/19 03:08:38;;;;;;;2.50;1.40;;;;;;;;;;4932266;29;20111;-85
2021/08/19 03:11:03;;;;;;;3.77;1.40;;;;;;;;;;4934961;29;20557;-84
2021/08/19 03:13:29;;;;;;;2.77;1.47;;;;;;;;;;4919587;29;20118;-84
2021/08/19 03:15:54;;;;;;;3.73;1.53;;;;;;;;;;4903680;29;20028;-85
2021/08/19 03:18:19;;;;;;;2.57;1.40;;;;;;;;;;4887971;29;20570;-85
2021/08/19 03:20:45;;;;;;;2.63;1.40;;;;;;;;;;4903565;29;20034;-85
2021/08/19 03:23:11;;;;;;;3.95;1.45;;;;;;;;;;4903247;29;20024;-84
2021/08/19 03:25:36;;;;;;;2.40;1.20;;;;;;;;;;4903554;29;20399;-85
2021/08/19 03:28:04;;;;;;;2.87;1.23;;;;;;;;;;4903655;29;20020;-85
2021/08/19 03:30:30;;;;;;;2.22;1.20;;;;;;;;;;4904084;29;20035;-84
2021/08/19 03:32:55;;;;;;;2.43;1.10;;;;;;;;;;4903421;29;20031;-84
2021/08/19 03:35:20;;;;;;;4.30;1.40;;;;;;;;;;4903301;29;20024;-84
2021/08/19 03:37:46;;;;;;;2.93;1.40;;;;;;;;;;4887757;29;20042;-85
2021/08/19 03:40:12;;;;;;;3.20;1.60;;;;;;;;;;4903466;29;20031;-85
2021/08/19 03:42:38;;;;;;;4.13;1.50;;;;;;;;;;4887557;29;20533;-84
2021/08/19 03:45:08;;;;;;;2.28;1.17;;;;;;;;;;4903571;29;20028;-84
2021/08/19 03:47:33;;;;;;;3.70;1.40;;;;;;;;;;4887283;29;20131;-85
2021/08/19 03:49:59;;;;;;;3.53;1.20;;;;;;;;;;4902914;29;20545;-84
2021/08/19 03:52:24;;;;;;;3.07;1.23;;;;;;;;;;4887210;29;20023;-85
2021/08/19 03:54:50;;;;;;;2.20;1.20;;;;;;;;;;4902791;29;20030;-84
2021/08/19 03:57:16;;;;;;;2.50;1.23;;;;;;;;;;4903409;29;20115;-84
2021/08/19 03:59:41;;;;;;;3.33;1.30;;;;;;;;;;4902811;29;20028;-84
2021/08/19 04:02:06;;;;;;;4.07;1.20;;;;;;;;;;4917987;29;20118;-84
2021/08/19 04:04:32;;;;;;;3.83;1.30;;;;;;;;;;4903082;29;20556;-84
2021/08/19 04:06:57;;;;;;;3.70;1.37;;;;;;;;;;4883782;29;20032;-84
2021/08/19 04:09:22;;;;;;;2.20;1.20;;;;;;;;;;4915103;29;20035;-84
2021/08/19 04:11:48;;;;;;;3.30;1.13;;;;;;;;;;4917739;29;20087;-84
2021/08/19 04:14:13;;;;;;;3.43;1.67;;;;;;;;;;4907542;29;20026;-84
2021/08/19 04:16:39;;;;;;;6.67;1.40;;;;;;;;;;4903006;29;20040;-85
2021/08/19 04:19:04;;;;;;;2.43;1.23;;;;;;;;;;4919246;29;20023;-86
2021/08/19 04:21:29;;;;;;;2.50;1.30;;;;;;;;;;4918194;29;20020;-86
2021/08/19 04:23:55;;;;;;;4.30;1.40;;;;;;;;;;4918748;29;20122;-87
2021/08/19 04:26:20;;;;;;;4.50;1.40;;;;;;;;;;4902657;29;20020;-87
2021/08/19 04:28:45;;;;;;;2.90;1.37;;;;;;;;;;4918370;29;20038;-87
2021/08/19 04:31:11;;;;;;;3.63;1.40;;;;;;;;;;4902360;29;20549;-86
2021/08/19 04:33:36;;;;;;;2.87;1.40;;;;;;;;;;4918468;29;20020;-86
2021/08/19 04:36:11;;;;;;;2.63;1.47;;;;;;;;;;4918738;29;20019;-89
2021/08/19 04:38:37;;;;;;;3.92;1.60;;;;;;;;;;4918130;29;20090;-86
2021/08/19 04:41:02;;;;;;;3.73;1.60;;;;;;;;;;4917963;29;20035;-86
2021/08/19 04:43:28;;;;;;;3.20;1.30;;;;;;;;;;4918557;29;20027;-89
2021/08/19 04:49:15;;;;;;;3.03;1.40;;;;;;;;;;4934206;29;20319;-90
2021/08/19 04:52:02;;;;;;;3.47;1.53;;;;;;;;;;4916785;29;20071;-87
2021/08/19 04:54:31;;;;;;;2.53;1.40;;;;;;;;;;4917611;29;20062;-86
2021/08/19 05:00:25;;;;;;;4.43;1.50;;;;;;;;;;4894972;29;20035;-90
2021/08/19 05:02:51;;;;;;;3.73;1.27;;;;;;;;;;4873909;23;20064;-55
2021/08/19 05:05:16;;;;;;;3.00;1.40;;;;;;;;;;4930567;29;20416;-60
2021/08/19 05:07:41;;;;;;;3.53;1.50;;;;;;;;;;4932680;29;20032;-58
2021/08/19 05:10:07;;;;;;;4.37;1.60;;;;;;;;;;4930845;29;20118;-60
2021/08/19 05:12:33;;;;;;;3.17;1.40;;;;;;;;;;4931432;29;20115;-54
2021/08/19 05:14:58;;;;;;;3.03;1.47;;;;;;;;;;4929968;29;20027;-52
2021/08/19 05:17:23;;;;;;;7.33;1.40;;;;;;;;;;4931985;29;20036;-58
2021/08/19 05:19:49;;;;;;;3.60;1.60;;;;;;;;;;4932869;29;20043;-57
2021/08/19 05:22:14;;;;;;;3.90;1.40;;;;;;;;;;4932017;29;20038;-56
2021/08/19 05:24:40;;;;;;;5.00;1.40;;;;;;;;;;4932306;29;20024;-53
2021/08/19 05:27:05;;;;;;;2.60;1.33;;;;;;;;;;4932588;29;20033;-51
2021/08/19 05:29:31;;;;;;;3.00;1.40;;;;;;;;;;4932287;29;20423;-51
2021/08/19 05:31:56;;;;;;;3.90;1.63;;;;;;;;;;4931037;29;20122;-58
2021/08/19 05:34:21;;;;;;;3.70;1.50;;;;;;;;;;4930832;29;20023;-62
2021/08/19 05:36:47;;;;;;;3.03;1.47;;;;;;;;;;4929657;29;20047;-54
2021/08/19 05:39:12;;;;;;;2.33;1.10;;;;;;;;;;4932149;29;20127;-52
2021/08/19 05:41:37;;;;;;;3.30;1.57;;;;;;;;;;4931449;29;20031;-59
2021/08/19 05:44:03;;;;;;;5.60;1.30;;;;;;;;;;4930308;29;20024;-59
2021/08/19 05:46:28;;;;;;;4.50;1.70;;;;;;;;;;4930749;29;20090;-60
2021/08/19 05:48:54;;;;;;;2.63;1.20;;;;;;;;;;4932594;29;20440;-59
2021/08/19 05:51:19;;;;;;;4.43;1.60;;;;;;;;;;4932409;29;20395;-53
2021/08/19 05:53:44;;;;;;;2.70;1.40;;;;;;;;;;4931578;29;20031;-57
2021/08/19 05:56:10;;;;;;;3.57;1.40;;;;;;;;;;4932423;29;20301;-54
2021/08/19 05:58:35;;;;;;;4.33;1.40;;;;;;;;;;4932184;29;20046;-59
2021/08/19 06:01:01;;;;;;;2.47;1.27;;;;;;;;;;4932206;29;20040;-54
2021/08/19 06:03:26;;;;;;;2.87;1.50;;;;;;;;;;4932309;29;20032;-54
2021/08/19 06:05:51;;;;;;;2.53;1.20;;;;;;;;;;4931241;29;20020;-58
2021/08/19 06:08:17;;;;;;;2.87;1.50;;;;;;;;;;4915087;29;20388;-56
2021/08/19 06:10:42;;;;;;;2.50;1.23;;;;;;;;;;4932256;29;20028;-55
2021/08/19 06:13:08;;;;;;;3.77;1.40;;;;;;;;;;4930604;29;20028;-59
2021/08/19 06:15:33;;;;;;;2.43;1.30;;;;;;;;;;4932080;29;20460;-54
2021/08/19 06:17:58;;;;;;;3.50;1.47;;;;;;;;;;4932553;29;20082;-60
2021/08/19 06:20:24;;;;;;;3.27;1.50;;;;;;;;;;4930637;29;20031;-60
2021/08/19 06:22:51;;;;;;;3.50;1.30;;;;;;;;;;4931581;29;20370;-62
2021/08/19 06:25:17;;;;;;;7.13;1.77;;;;;;;;;;4932421;29;20027;-53
2021/08/19 06:27:42;;;;;;;2.33;1.20;;;;;;;;;;4934001;29;20046;-55
2021/08/19 06:30:08;;;;;;;3.13;1.60;;;;;;;;;;4935264;29;20110;-50
2021/08/19 06:32:33;;;;;;;3.37;1.37;;;;;;;;;;4916202;29;20028;-54
2021/08/19 06:34:59;;;;;;;3.00;1.23;;;;;;;;;;4916646;29;20028;-51
2021/08/19 06:37:24;;;;;;;2.30;1.33;;;;;;;;;;4916315;29;20051;-51
2021/08/19 06:39:49;;;;;;;1.73;1.00;;;;;;;;;;4916778;29;20380;-50
2021/08/19 06:42:15;;;;;;;3.00;1.30;;;;;;;;;;4925223;29;20110;-56
2021/08/19 06:44:40;;;;;;;3.70;1.50;;;;;;;;;;4935937;29;20111;-50
2021/08/19 06:47:05;;;;;;;4.17;1.80;;;;;;;;;;4935965;29;20027;-58
2021/08/19 06:49:31;;;;;;;2.50;1.40;;;;;;;;;;4935860;29;20023;-53
2021/08/19 06:51:56;;;;;;;2.80;1.60;;;;;;;;;;4934223;29;20031;-50
2021/08/19 06:54:22;;;;;;;2.57;1.50;;;;;;;;;;4936169;29;20027;-52
2021/08/19 06:56:47;;;;;;;3.00;1.37;;;;;;;;;;4935724;29;20035;-56
2021/08/19 06:59:12;;;;;;;2.83;1.40;;;;;;;;;;4935491;29;20031;-53
2021/08/19 07:01:38;;;;;;;2.60;1.17;;;;;;;;;;4934952;29;20106;-57
2021/08/19 07:04:03;;;;;;;5.30;1.30;;;;;;;;;;4935728;29;20031;-52
2021/08/19 07:06:29;;;;;;;3.00;1.60;;;;;;;;;;4935477;29;20027;-52
2021/08/19 07:08:54;;;;;;;3.63;1.43;;;;;;;;;;4935660;29;20099;-50
2021/08/19 07:11:19;;;;;;;3.97;1.70;;;;;;;;;;4935208;29;20027;-53
2021/08/19 07:13:45;;;;;;;2.73;1.30;;;;;;;;;;4934993;29;20420;-54
2021/08/19 07:16:10;;;;;;;2.73;1.30;;;;;;;;;;4935812;29;20022;-51
2021/08/19 07:18:35;;;;;;;2.17;1.20;;;;;;;;;;4935346;29;20122;-51
2021/08/19 07:21:01;;;;;;;2.67;1.30;;;;;;;;;;4935102;29;20111;-50
2021/08/19 07:23:26;;;;;;;3.17;1.40;;;;;;;;;;4934839;29;20481;-53
2021/08/19 07:25:52;;;;;;;3.23;1.10;;;;;;;;;;4934909;29;20110;-52
2021/08/19 07:28:17;;;;;;;2.40;1.30;;;;;;;;;;4933832;29;20023;-54
2021/08/19 07:30:42;;;;;;;2.97;1.47;;;;;;;;;;4933395;29;20063;-53
2021/08/19 07:33:08;;;;;;;2.70;1.40;;;;;;;;;;4934424;29;20038;-51
2021/08/19 07:35:34;;;;;;;2.37;1.50;;;;;;;;;;4933885;29;20471;-56
2021/08/19 07:37:59;;;;;;;5.22;1.42;;;;;;;;;;4933803;29;20038;-51
2021/08/19 07:40:27;;;;;;;3.33;1.53;;;;;;;;;;4934082;29;20110;-55
2021/08/19 07:42:52;;;;;;;4.13;1.55;;;;;;;;;;4934301;29;20496;-50
2021/08/19 07:45:18;;;;;;;3.30;1.60;;;;;;;;;;4934415;29;20054;-58
2021/08/19 07:47:43;;;;;;;2.97;1.30;;;;;;;;;;4934170;29;20056;-52
2021/08/19 07:50:09;;;;;;;3.27;1.43;;;;;;;;;;4934171;29;20103;-50
2021/08/19 07:52:35;;;;;;;2.85;1.40;;;;;;;;;;4932527;29;20046;-50
2021/08/19 07:55:01;;;;;;;5.80;1.15;;;;;;;;;;4933905;29;20404;-56
2021/08/19 07:57:26;;;;;;;2.80;1.50;;;;;;;;;;4933147;29;20043;-54
2021/08/19 07:59:51;;;;;;;3.27;1.30;;;;;;;;;;4934308;29;20027;-54
2021/08/19 08:02:17;;;;;;;9.07;1.97;;;;;;;;;;4933372;29;20111;-51
2021/08/19 08:04:43;;;;;;;3.30;1.58;;;;;;;;;;4932544;29;20131;-52
2021/08/19 08:07:08;;;;;;;2.30;1.17;;;;;;;;;;4933764;29;20114;-52
2021/08/19 08:09:33;;;;;;;2.20;1.27;;;;;;;;;;4933234;29;20166;-50
2021/08/19 08:12:00;;;;;;;2.53;1.13;;;;;;;;;;4933341;29;20031;-51
2021/08/19 08:14:25;;;;;;;2.17;1.35;;;;;;;;;;4933649;29;20027;-50
2021/08/19 08:16:50;;;;;;;2.50;1.10;;;;;;;;;;4932650;29;20488;-55
2021/08/19 08:19:16;;;;;;;1.60;0.97;;;;;;;;;;4933013;29;20118;-52
2021/08/19 08:21:42;;;;;;;1.98;1.00;;;;;;;;;;4932555;29;20034;-53
2021/08/19 08:24:08;;;;;;;1.80;1.05;;;;;;;;;;4933046;29;20127;-50
2021/08/19 08:26:33;;;;;;;2.53;1.40;;;;;;;;;;4933569;29;20378;-52
2021/08/19 08:28:59;;;;;;;4.03;1.03;;;;;;;;;;4933320;29;20031;-54
2021/08/19 08:31:24;;;;;;;1.87;1.00;;;;;;;;;;4933046;29;20281;-52
2021/08/19 08:33:51;;;;;;;1.73;1.07;;;;;;;;;;4933482;29;20163;-50
2021/08/19 08:36:17;;;;;;;1.98;1.00;;;;;;;;;;4933139;29;20274;-53
2021/08/19 08:38:44;;;;;;;5.43;1.40;;;;;;;;;;4933230;29;20039;-56
2021/08/19 08:41:09;;;;;;;2.47;1.00;;;;;;;;;;4932219;29;20090;-53
2021/08/19 08:43:34;;;;;;;3.03;1.13;;;;;;;;;;4916529;29;20028;-51
2021/08/19 08:46:00;;;;;;;1.23;0.90;;;;;;;;;;4916549;29;20494;-52
2021/08/19 08:48:25;;;;;;;4.37;1.00;;;;;;;;;;4915905;29;20166;-56
2021/08/19 08:50:56;;;;;;;1.40;0.70;;;;;;;;;;4931006;29;20031;-52
2021/08/19 08:53:21;;;;;;;2.53;1.05;;;;;;;;;;4932191;29;20036;-61
2021/08/19 08:55:46;;;;;;;;;;;;;;;;;;4932132;29;20188;-53
2021/08/19 08:58:12;;;;;;;3.40;0.77;;;;;;;;;;4932890;29;20009;-61
2021/08/19 09:00:42;;;;;;;1.90;0.93;;;;;;;;;;4931600;29;20275;-56
2021/08/19 09:03:08;;;;;;;1.83;0.80;;;;;;;;;;4914914;29;20059;-61
2021/08/19 09:05:40;;;;;;;2.05;0.90;;;;;;;;;;4932109;29;20036;-60
2021/08/19 09:08:06;;;;;;;3.33;1.00;;;;;;;;;;4916768;29;20024;-60
2021/08/19 09:10:32;;;;;;;2.17;1.10;;;;;;;;;;4931453;29;20087;-56
2021/08/19 09:13:16;;;;;;;2.55;0.70;;;;;;;;;;4932424;29;20036;-55
2021/08/19 09:15:46;;;;;;;1.02;0.82;;;;;;;;;;4932360;29;20031;-62
2021/08/19 09:18:12;;;;;;;0.98;0.70;;;;;;;;;;4932864;29;20055;-58
2021/08/19 09:20:41;;;;;;;1.08;0.75;;;;;;;;;;4931227;29;20484;-55
2021/08/19 09:23:11;;;;;;;1.05;0.65;;;;;;;;;;4932174;29;20444;-57
2021/08/19 09:25:45;;;;;;;1.73;0.80;;;;;;;;;;4930925;29;20020;-59
2021/08/19 09:28:25;;;;;;;1.17;0.70;;;;;;;;;;4932865;29;20332;-55
2021/08/19 09:30:52;;;;;;;2.42;0.80;;;;;;;;;;4932261;29;20028;-56
2021/08/19 09:33:19;;;;;;;1.20;0.63;;;;;;;;;;4930665;29;20023;-58
2021/08/19 09:35:45;;;;;;;1.90;0.90;;;;;;;;;;4932438;29;20030;-60
2021/08/19 09:38:12;;;;;;;;;;;;;;;;;;4932787;29;20075;-59
2021/08/19 09:40:37;;;;;;;1.52;0.70;;;;;;;;;;4930801;29;20360;-60
2021/08/19 09:43:02;;;;;;;2.15;1.10;;;;;;;;;;4930279;29;20035;-56
2021/08/19 09:45:28;;;;;;;1.30;0.70;;;;;;;;;;4932453;29;20027;-55
2021/08/19 09:48:06;;;;;;;2.40;0.90;;;;;;;;;;4932299;29;20024;-60
2021/08/19 09:50:33;;;;;;;1.23;0.90;;;;;;;;;;4931532;29;20023;-55
2021/08/19 09:53:18;;;;;;;2.15;1.00;;;;;;;;;;4931672;29;20020;-52
2021/08/19 09:55:43;;;;;;;1.70;1.00;;;;;;;;;;4916676;29;20024;-53
2021/08/19 09:58:08;;;;;;;2.00;0.90;;;;;;;;;;4932347;29;20236;-58
2021/08/19 10:00:40;;;;;;;3.47;1.10;;;;;;;;;;4933865;29;20032;-58
2021/08/19 10:03:05;;;;;;;2.55;1.13;;;;;;;;;;4935650;29;20369;-55
2021/08/19 10:05:30;;;;;;;3.37;1.10;;;;;;;;;;4935887;29;20111;-52
2021/08/19 10:07:57;;;;;;;1.80;0.90;;;;;;;;;;4936096;29;20330;-58
2021/08/19 10:10:22;;;;;;;1.55;0.77;;;;;;;;;;4936141;29;20492;-59
2021/08/19 10:12:48;;;;;;;2.53;0.90;;;;;;;;;;4918337;29;20032;-57
2021/08/19 10:15:14;;;;;;;1.80;1.10;;;;;;;;;;4936111;29;20027;-54
2021/08/19 10:17:50;;;;;;;2.70;0.87;;;;;;;;;;4935233;29;20044;-61
2021/08/19 10:20:18;;;;;;;1.60;0.82;;;;;;;;;;4919555;29;20028;-58
2021/08/19 10:22:43;;;;;;;2.15;0.80;;;;;;;;;;4918374;29;20035;-61
2021/08/19 10:25:09;;;;;;;2.27;1.00;;;;;;;;;;4918626;29;20028;-62
2021/08/19 10:27:35;;;;;;;1.20;0.70;;;;;;;;;;4935805;29;20026;-64
2021/08/19 10:30:05;;;;;;;2.78;0.90;;;;;;;;;;4935177;29;20031;-64
2021/08/19 10:32:40;;;;;;;1.60;0.80;;;;;;;;;;4933984;29;20067;-63
2021/08/19 10:35:12;;;;;;;2.13;0.90;;;;;;;;;;4934807;29;20407;-59
2021/08/19 10:37:46;;;;;;;2.20;0.70;;;;;;;;;;4935479;29;20032;-62
2021/08/19 10:40:24;;;;;;;3.50;0.60;;;;;;;;;;4935069;29;20440;-64
2021/08/19 10:42:56;;;;;;;1.98;0.73;;;;;;;;;;4935166;29;20075;-63
2021/08/19 10:45:28;;;;;;;3.10;0.90;;;;;;;;;;4935224;29;20047;-61
2021/08/19 10:48:08;;;;;;;1.73;0.93;;;;;;;;;;4935728;29;20053;-64
2021/08/19 10:50:40;;;;;;;2.13;1.02;;;;;;;;;;4935001;29;20028;-61
2021/08/19 10:53:21;;;;;;;4.78;1.00;;;;;;;;;;4933092;29;20054;-61
2021/08/19 10:55:54;;;;;;;1.60;0.90;;;;;;;;;;4933809;29;20036;-62
2021/08/19 10:58:22;;;;;;;1.20;0.60;;;;;;;;;;4933244;29;20039;-61
2021/08/19 11:00:47;;;;;;;1.95;0.70;;;;;;;;;;4935077;29;20034;-63
2021/08/19 11:03:38;;;;;;;1.73;0.90;;;;;;;;;;4934320;29;20036;-61
2021/08/19 11:06:04;;;;;;;2.25;0.60;;;;;;;;;;4934785;29;20041;-62
2021/08/19 11:08:58;;;;;;;2.17;0.80;;;;;;;;;;4934559;29;20031;-60
2021/08/19 11:11:44;;;;;;;4.28;1.10;;;;;;;;;;4933280;29;20500;-61
2021/08/19 11:14:16;;;;;;;3.00;0.70;;;;;;;;;;4933938;29;20075;-60
2021/08/19 11:16:42;;;;;;;1.80;0.77;;;;;;;;;;4933583;29;20071;-59
2021/08/19 11:19:21;;;;;;;1.65;0.73;;;;;;;;;;4934600;29;20032;-58
2021/08/19 11:21:55;;;;;;;4.07;0.88;;;;;;;;;;4933700;29;20047;-61
2021/08/19 11:24:20;;;;;;;2.05;0.70;;;;;;;;;;4933055;29;20051;-61
2021/08/19 11:27:09;;;;;;;1.27;0.60;;;;;;;;;;4934577;29;20028;-60
2021/08/19 11:29:41;;;;;;;1.20;0.70;;;;;;;;;;4933308;29;20297;-65
2021/08/19 11:32:07;;;;;;;2.70;0.80;;;;;;;;;;4932593;29;20094;-63
2021/08/19 11:34:33;;;;;;;0.80;0.65;;;;;;;;;;4934242;29;20436;-62
2021/08/19 11:36:58;;;;;;;0.98;0.50;;;;;;;;;;4932671;29;20140;-62
2021/08/19 11:39:27;;;;;;;1.73;0.60;;;;;;;;;;4933966;29;20032;-59
2021/08/19 11:41:56;;;;;;;1.35;0.68;;;;;;;;;;4932688;29;20115;-63
2021/08/19 11:44:22;;;;;;;1.65;0.80;;;;;;;;;;4934017;29;20039;-59
2021/08/19 11:46:47;;;;;;;2.40;0.80;;;;;;;;;;4934512;29;20456;-60
2021/08/19 11:49:13;;;;;;;1.07;0.60;;;;;;;;;;4932132;29;20219;-61
2021/08/19 11:51:39;;;;;;;;;;;;;;;;;;4932831;29;20035;-61
2021/08/19 11:54:12;;;;;;;1.50;0.70;;;;;;;;;;4933788;29;19966;-63
2021/08/19 11:56:39;;;;;;;1.45;0.70;;;;;;;;;;4932752;29;20031;-62
2021/08/19 11:59:09;;;;;;;2.53;0.90;;;;;;;;;;4933402;29;20031;-59
2021/08/19 12:01:35;;;;;;;1.30;0.57;;;;;;;;;;4932315;29;20063;-62
2021/08/19 12:04:01;;;;;;;2.45;0.90;;;;;;;;;;4933433;29;20400;-63
2021/08/19 12:06:27;;;;;;;1.45;0.80;;;;;;;;;;4931777;29;20038;-63
2021/08/19 12:08:57;;;;;;;1.40;0.50;;;;;;;;;;4933833;29;20055;-62
2021/08/19 12:11:24;;;;;;;0.65;0.50;;;;;;;;;;4931893;29;20028;-60
2021/08/19 12:13:50;;;;;;;2.40;0.70;;;;;;;;;;4932342;29;20035;-62
2021/08/19 12:16:27;;;;;;;0.80;0.43;;;;;;;;;;4916059;29;20071;-62
2021/08/19 12:19:12;;;;;;;1.42;0.50;;;;;;;;;;4933194;29;20047;-60
2021/08/19 12:21:39;;;;;;;1.45;0.60;;;;;;;;;;4932863;29;20240;-62
2021/08/19 12:24:25;;;;;;;0.90;0.50;;;;;;;;;;4933851;29;20391;-62
2021/08/19 12:27:14;;;;;;;1.70;0.57;;;;;;;;;;4933329;29;20031;-61
2021/08/19 12:29:46;;;;;;;0.95;0.50;;;;;;;;;;4932189;29;20031;-62
2021/08/19 12:32:36;;;;;;;1.77;0.57;;;;;;;;;;4932529;29;20129;-62
2021/08/19 12:35:03;;;;;;;1.13;0.70;;;;;;;;;;4932797;29;20575;-62
2021/08/19 12:37:30;;;;;;;1.00;0.60;;;;;;;;;;4933077;29;20110;-61
2021/08/19 12:39:56;;;;;;;1.05;0.60;;;;;;;;;;4931493;29;20055;-62
2021/08/19 12:42:30;;;;;;;3.67;0.60;;;;;;;;;;4931408;29;20032;-64
2021/08/19 12:45:12;;;;;;;1.05;0.57;;;;;;;;;;4931832;29;20036;-62
2021/08/19 12:47:45;;;;;;;1.15;0.50;;;;;;;;;;4931406;29;20373;-65
2021/08/19 12:50:15;;;;;;;2.42;0.52;;;;;;;;;;4932381;29;20464;-63
2021/08/19 12:52:41;;;;;;;0.75;0.50;;;;;;;;;;4931586;29;20043;-61
2021/08/19 12:55:33;;;;;;;2.40;0.77;;;;;;;;;;4931555;29;20023;-61
2021/08/19 12:57:59;;;;;;;2.65;0.50;;;;;;;;;;4928395;29;20047;-60
2021/08/19 13:00:31;;;;;;;0.90;0.50;;;;;;;;;;4932570;29;20019;-63
2021/08/19 13:02:58;;;;;;;5.65;0.60;;;;;;;;;;4930181;29;20392;-63
2021/08/19 13:05:26;;;;;;;4.63;0.77;;;;;;;;;;4932949;29;20027;-62
2021/08/19 13:07:52;;;;;;;1.15;0.50;;;;;;;;;;4931404;29;20024;-61
2021/08/19 13:10:18;;;;;;;1.73;0.63;;;;;;;;;;4932436;29;20392;-59
2021/08/19 13:12:44;;;;;;;1.75;0.70;;;;;;;;;;4931167;29;20571;-62
2021/08/19 13:15:10;;;;;;;1.40;0.60;;;;;;;;;;4931134;29;20047;-60
2021/08/19 13:17:35;;;;;;;2.05;0.47;;;;;;;;;;4931086;29;20139;-61
2021/08/19 13:20:00;;;;;;;2.67;0.53;;;;;;;;;;4930950;29;20106;-57
2021/08/19 13:22:26;;;;;;;1.27;0.60;;;;;;;;;;4932324;29;20023;-56
2021/08/19 13:24:52;;;;;;;2.67;0.70;;;;;;;;;;4932268;29;20063;-62
2021/08/19 13:27:18;;;;;;;1.27;0.50;;;;;;;;;;4933085;29;20024;-63
2021/08/19 13:29:44;;;;;;;1.80;0.70;;;;;;;;;;4930179;29;20032;-63
2021/08/19 13:32:09;;;;;;;0.73;0.50;;;;;;;;;;4915538;29;20015;-59
2021/08/19 13:34:35;;;;;;;2.07;0.50;;;;;;;;;;4933000;29;20038;-62
2021/08/19 13:37:00;;;;;;;1.42;0.70;;;;;;;;;;4934701;29;20028;-61
2021/08/19 13:39:26;;;;;;;1.30;0.60;;;;;;;;;;4935056;29;20038;-62
2021/08/19 13:41:52;;;;;;;0.65;0.45;;;;;;;;;;4934436;29;20027;-64
2021/08/19 13:44:18;;;;;;;1.67;0.60;;;;;;;;;;4936185;29;20031;-63
2021/08/19 13:46:43;;;;;;;1.13;0.50;;;;;;;;;;4935848;29;20039;-61
2021/08/19 13:49:08;;;;;;;2.37;0.70;;;;;;;;;;4934666;29;20107;-63
2021/08/19 13:51:34;;;;;;;1.67;0.57;;;;;;;;;;4934890;29;20028;-64
2021/08/19 13:53:59;;;;;;;2.10;0.60;;;;;;;;;;4936712;29;20031;-60
2021/08/19 13:56:25;;;;;;;6.30;0.93;;;;;;;;;;4935914;29;20016;-61
2021/08/19 13:58:50;;;;;;;;;;;;;;;;;;4935983;29;20106;-56
2021/08/19 14:01:16;;;;;;;1.33;0.60;;;;;;;;;;4935731;29;20291;-61
2021/08/19 14:03:41;;;;;;;1.77;0.57;;;;;;;;;;4935967;29;20110;-62
2021/08/19 14:06:07;;;;;;;0.80;0.47;;;;;;;;;;4935700;29;20022;-60
2021/08/19 14:08:34;;;;;;;1.00;0.50;;;;;;;;;;4935810;29;20034;-60
2021/08/19 14:11:00;;;;;;;1.63;0.40;;;;;;;;;;4934877;29;20271;-65
2021/08/19 14:13:25;;;;;;;0.80;0.40;;;;;;;;;;4935586;29;20050;-63
2021/08/19 14:15:50;;;;;;;1.33;0.50;;;;;;;;;;4934304;29;20498;-63
2021/08/19 14:18:16;;;;;;;2.33;0.40;;;;;;;;;;4934899;29;20117;-64
2021/08/19 14:20:41;;;;;;;1.17;0.45;;;;;;;;;;4933987;29;20035;-62
2021/08/19 14:23:07;;;;;;;0.70;0.30;;;;;;;;;;4934677;29;20106;-63
2021/08/19 14:25:32;;;;;;;0.83;0.43;;;;;;;;;;4935240;29;20111;-63
2021/08/19 14:27:58;;;;;;;0.87;0.43;;;;;;;;;;4934625;29;20539;-64
2021/08/19 14:30:24;;;;;;;0.63;0.32;;;;;;;;;;4934511;29;20028;-63
2021/08/19 14:32:49;;;;;;;1.33;0.30;;;;;;;;;;4934689;29;20065;-65
2021/08/19 14:35:15;;;;;;;0.47;0.30;;;;;;;;;;4935755;29;20039;-63
2021/08/19 14:37:40;;;;;;;0.60;0.33;;;;;;;;;;4935232;29;20031;-60
2021/08/19 14:40:06;;;;;;;0.40;0.30;;;;;;;;;;4934624;29;20031;-63
2021/08/19 14:42:31;;;;;;;1.20;0.20;;;;;;;;;;4934224;29;20042;-63
2021/08/19 14:44:57;;;;;;;0.93;0.40;;;;;;;;;;4946628;29;20027;-60
2021/08/19 14:47:22;;;;;;;0.40;0.30;;;;;;;;;;4954067;28;20476;-60
2021/08/19 14:49:47;;;;;;;1.20;0.40;;;;;;;;;;4935890;28;20451;-64
2021/08/19 14:52:13;;;;;;;0.67;0.30;;;;;;;;;;4934392;29;20107;-61